createdAt,value
2022-09-16T00:00:57.794Z,3.47
2022-09-16T00:03:25.757Z,5.00
2022-09-16T00:05:54.891Z,4.30
2022-09-16T00:08:23.591Z,6.17
2022-09-16T00:10:52.190Z,4.60
2022-09-16T00:13:20.942Z,4.83
2022-09-16T00:15:51.348Z,4.57
2022-09-16T00:18:21.482Z,3.83
2022-09-16T00:20:51.342Z,5.93
2022-09-16T00:23:20.614Z,5.50
2022-09-16T00:25:55.696Z,5.57
2022-09-16T00:28:31.557Z,4.37
2022-09-16T00:31:06.631Z,5.83
2022-09-16T00:33:42.458Z,5.37
2022-09-16T00:36:15.070Z,5.67
2022-09-16T00:38:50.817Z,3.80
2022-09-16T00:41:24.138Z,4.43
2022-09-16T00:44:00.086Z,4.17
2022-09-16T00:46:37.313Z,4.90
2022-09-16T00:49:16.189Z,3.63
2022-09-16T00:51:50.707Z,5.50
2022-09-16T00:54:25.505Z,7.07
2022-09-16T00:56:58.675Z,4.70
2022-09-16T00:59:32.112Z,4.33
2022-09-16T01:02:05.911Z,4.10
2022-09-16T01:04:40.745Z,4.60
2022-09-16T01:07:13.823Z,5.87
2022-09-16T01:09:50.479Z,3.73
2022-09-16T01:12:23.626Z,4.67
2022-09-16T01:14:58.927Z,5.87
2022-09-16T01:17:41.796Z,5.83
2022-09-16T01:20:38.937Z,5.13
2022-09-16T01:23:29.366Z,6.00
2022-09-16T01:26:17.574Z,5.70
2022-09-16T01:29:30.590Z,4.60
2022-09-16T01:32:07.334Z,5.90
2022-09-16T01:34:45.206Z,4.13
2022-09-16T01:37:21.594Z,6.80
2022-09-16T01:39:56.182Z,6.30
2022-09-16T01:42:32.658Z,4.43
2022-09-16T01:45:07.334Z,4.73
2022-09-16T01:47:42.248Z,4.97
2022-09-16T01:50:18.452Z,6.70
2022-09-16T01:52:54.810Z,4.67
2022-09-16T01:55:27.378Z,4.70
2022-09-16T01:57:59.351Z,5.13
2022-09-16T02:00:27.643Z,6.37
2022-09-16T02:03:01.469Z,2.80
2022-09-16T02:05:34.345Z,4.70
2022-09-16T02:08:06.623Z,5.53
2022-09-16T02:10:40.474Z,6.20
2022-09-16T02:13:14.331Z,4.97
2022-09-16T02:15:45.722Z,4.90
2022-09-16T02:18:19.958Z,5.00
2022-09-16T02:20:50.296Z,4.87
2022-09-16T02:23:21.569Z,4.50
2022-09-16T02:25:51.471Z,6.00
2022-09-16T02:28:26.090Z,5.80
2022-09-16T02:30:58.513Z,6.90
2022-09-16T02:33:34.387Z,7.10
2022-09-16T02:36:04.469Z,3.67
2022-09-16T02:38:36.040Z,5.33
2022-09-16T02:41:04.385Z,5.10
2022-09-16T02:43:32.595Z,4.40
2022-09-16T02:46:09.749Z,5.63
2022-09-16T02:48:49.453Z,5.57
2022-09-16T02:51:25.477Z,4.50
2022-09-16T02:53:58.012Z,3.00
2022-09-16T02:56:30.507Z,5.30
2022-09-16T02:58:58.832Z,5.33
2022-09-16T03:01:28.483Z,4.30
2022-09-16T03:03:58.083Z,4.73
2022-09-16T03:06:27.547Z,5.87
2022-09-16T03:09:00.463Z,9.13
2022-09-16T03:11:49.005Z,3.13
2022-09-16T03:14:56.947Z,6.53
2022-09-16T03:17:46.374Z,4.43
2022-09-16T03:20:22.368Z,5.83
2022-09-16T03:22:56.985Z,5.30
2022-09-16T03:25:39.570Z,4.30
2022-09-16T03:28:11.332Z,4.97
2022-09-16T03:30:46.228Z,4.50
2022-09-16T03:33:23.685Z,4.70
2022-09-16T03:35:55.257Z,4.47
2022-09-16T03:38:23.361Z,4.80
2022-09-16T03:40:52.516Z,4.33
2022-09-16T03:43:20.627Z,6.30
2022-09-16T03:45:48.521Z,8.60
2022-09-16T03:48:16.486Z,6.27
2022-09-16T03:50:44.604Z,6.37
2022-09-16T03:53:13.872Z,4.63
2022-09-16T03:55:41.746Z,5.37
2022-09-16T03:58:09.937Z,6.20
2022-09-16T04:00:38.127Z,8.00
2022-09-16T04:03:06.391Z,8.10
2022-09-16T04:05:34.392Z,6.50
2022-09-16T04:08:02.575Z,5.50
2022-09-16T04:10:31.899Z,6.20
2022-09-16T04:12:59.958Z,5.57
2022-09-16T04:15:27.791Z,3.90
2022-09-16T04:17:56.180Z,7.77
2022-09-16T04:20:24.939Z,7.07
2022-09-16T04:22:53.333Z,4.57
2022-09-16T04:25:21.363Z,6.20
2022-09-16T04:27:50.579Z,5.73
2022-09-16T04:30:18.852Z,6.50
2022-09-16T04:32:46.987Z,7.80
2022-09-16T04:35:15.120Z,7.37
2022-09-16T04:37:43.025Z,6.20
2022-09-16T04:40:11.387Z,7.53
2022-09-16T04:42:39.319Z,4.43
2022-09-16T04:45:10.039Z,9.03
2022-09-16T04:47:37.900Z,8.13
2022-09-16T04:50:06.928Z,8.57
2022-09-16T04:52:34.905Z,7.30
2022-09-16T04:55:03.257Z,9.90
2022-09-16T04:57:32.533Z,9.07
2022-09-16T05:00:00.717Z,8.60
2022-09-16T05:02:30.214Z,8.40
2022-09-16T05:04:58.332Z,11.57
2022-09-16T05:07:26.224Z,9.20
2022-09-16T05:09:54.070Z,7.37
2022-09-16T05:12:22.309Z,7.70
2022-09-16T05:14:50.200Z,11.17
2022-09-16T05:17:33.430Z,8.20
2022-09-16T05:20:08.365Z,7.47
2022-09-16T05:22:37.151Z,7.10
2022-09-16T05:25:05.641Z,7.80
2022-09-16T05:27:34.262Z,9.73
2022-09-16T05:30:02.522Z,9.20
2022-09-16T05:32:31.034Z,11.60
2022-09-16T05:34:59.123Z,6.87
2022-09-16T05:37:28.555Z,9.73
2022-09-16T05:39:56.925Z,8.13
2022-09-16T05:42:24.992Z,8.80
2022-09-16T05:44:52.923Z,11.10
2022-09-16T05:47:20.875Z,7.83
2022-09-16T05:49:48.839Z,9.30
2022-09-16T05:52:16.749Z,8.43
2022-09-16T05:54:46.149Z,8.77
2022-09-16T05:57:14.492Z,8.57
2022-09-16T05:59:42.413Z,8.30
2022-09-16T06:02:12.846Z,9.67
2022-09-16T06:04:40.715Z,9.30
2022-09-16T06:07:09.100Z,8.23
2022-09-16T06:09:37.067Z,10.07
2022-09-16T06:12:06.708Z,10.10
2022-09-16T06:14:34.802Z,9.00
2022-09-16T06:17:02.899Z,13.67
2022-09-16T06:19:30.893Z,10.60
2022-09-16T06:21:58.912Z,12.13
2022-09-16T06:24:27.032Z,7.60
2022-09-16T06:26:56.574Z,10.17
2022-09-16T06:29:26.296Z,7.90
2022-09-16T06:31:54.267Z,9.13
2022-09-16T06:34:22.307Z,12.40
2022-09-16T06:36:50.216Z,9.03
2022-09-16T06:39:18.284Z,8.70
2022-09-16T06:41:46.712Z,10.43
2022-09-16T06:44:14.643Z,13.87
2022-09-16T06:46:44.256Z,13.43
2022-09-16T06:49:12.998Z,10.27
2022-09-16T06:51:41.449Z,9.83
2022-09-16T06:54:10.917Z,10.77
2022-09-16T06:56:39.920Z,13.23
2022-09-16T06:59:08.575Z,10.23
2022-09-16T07:01:37.038Z,9.43
2022-09-16T07:04:10.428Z,11.83
2022-09-16T07:07:07.479Z,9.60
2022-09-16T07:09:26.528Z,11.57
2022-09-16T07:11:55.380Z,14.97
2022-09-16T07:14:23.698Z,12.70
2022-09-16T07:16:51.757Z,14.27
2022-09-16T07:19:21.138Z,9.90
2022-09-16T07:21:49.147Z,10.27
2022-09-16T07:24:17.114Z,10.40
2022-09-16T07:26:45.974Z,13.23
2022-09-16T07:29:15.793Z,11.00
2022-09-16T07:31:44.312Z,10.40
2022-09-16T07:34:13.609Z,10.57
2022-09-16T07:36:44.631Z,13.07
2022-09-16T07:39:13.824Z,10.17
2022-09-16T07:41:43.485Z,11.43
2022-09-16T07:44:13.351Z,10.67
2022-09-16T07:46:41.935Z,12.83
2022-09-16T07:49:12.251Z,9.00
2022-09-16T07:51:40.414Z,10.50
2022-09-16T07:54:12.653Z,12.13
2022-09-16T07:56:42.305Z,11.37
2022-09-16T07:59:17.715Z,11.00
2022-09-16T08:01:47.509Z,13.20
2022-09-16T08:04:15.549Z,9.50
2022-09-16T08:06:43.592Z,11.20
2022-09-16T08:09:37.625Z,11.03
2022-09-16T08:12:03.132Z,9.73
2022-09-16T08:14:31.175Z,8.87
2022-09-16T08:16:59.140Z,11.10
2022-09-16T08:19:27.212Z,10.70
2022-09-16T08:21:55.080Z,11.23
2022-09-16T08:24:24.480Z,8.13
2022-09-16T08:26:52.892Z,9.40
2022-09-16T08:29:22.396Z,9.13
2022-09-16T08:31:50.452Z,8.30
2022-09-16T08:34:18.634Z,12.87
2022-09-16T08:36:46.937Z,9.57
2022-09-16T08:39:15.232Z,9.43
2022-09-16T08:42:29.145Z,11.07
2022-09-16T08:45:04.817Z,8.13
2022-09-16T08:47:43.609Z,10.00
2022-09-16T08:50:17.735Z,12.40
2022-09-16T08:52:47.056Z,9.13
2022-09-16T08:55:19.106Z,10.40
2022-09-16T08:57:56.768Z,10.23
2022-09-16T09:00:25.034Z,11.20
2022-09-16T09:02:56.806Z,10.53
2022-09-16T09:05:32.869Z,10.53
2022-09-16T09:08:14.100Z,10.60
2022-09-16T09:10:47.077Z,17.03
2022-09-16T09:13:31.375Z,10.77
2022-09-16T09:16:07.705Z,7.73
2022-09-16T09:18:50.498Z,12.23
2022-09-16T09:21:27.396Z,10.20
2022-09-16T09:24:17.350Z,8.80
2022-09-16T09:26:49.785Z,10.30
2022-09-16T09:29:59.795Z,8.80
2022-09-16T09:32:48.423Z,10.03
2022-09-16T09:35:29.626Z,9.50
2022-09-16T09:38:24.998Z,10.57
2022-09-16T09:40:57.450Z,10.63
2022-09-16T09:43:32.677Z,9.93
2022-09-16T09:46:05.476Z,10.30
2022-09-16T09:48:38.253Z,12.80
2022-09-16T09:51:14.388Z,13.10
2022-09-16T09:53:47.844Z,12.57
2022-09-16T09:56:20.981Z,11.20
2022-09-16T09:58:58.817Z,11.40
2022-09-16T10:01:26.771Z,17.30
2022-09-16T10:03:58.251Z,10.87
2022-09-16T10:06:29.862Z,15.57
2022-09-16T10:08:59.130Z,14.27
2022-09-16T10:11:31.028Z,10.87
2022-09-16T10:14:01.418Z,9.87
2022-09-16T10:16:33.247Z,13.80
2022-09-16T10:19:09.566Z,10.77
2022-09-16T10:21:43.634Z,12.40
2022-09-16T10:24:31.993Z,12.97
2022-09-16T10:27:01.658Z,12.57
2022-09-16T10:29:30.298Z,15.23
2022-09-16T10:32:05.521Z,13.70
2022-09-16T10:34:38.839Z,14.83
2022-09-16T10:37:17.926Z,14.97
2022-09-16T10:39:52.605Z,16.27
2022-09-16T10:42:22.784Z,14.23
2022-09-16T10:44:52.319Z,18.40
2022-09-16T10:47:24.310Z,15.40
2022-09-16T10:49:56.575Z,14.97
2022-09-16T10:52:26.439Z,11.67
2022-09-16T10:54:54.849Z,9.03
2022-09-16T10:57:25.916Z,9.80
2022-09-16T11:00:04.080Z,9.20
2022-09-16T11:02:54.632Z,10.17
2022-09-16T11:05:33.356Z,9.30
2022-09-16T11:08:12.491Z,12.70
2022-09-16T11:10:46.111Z,6.50
2022-09-16T11:13:34.460Z,12.73
2022-09-16T11:16:17.742Z,9.03
2022-09-16T11:18:55.196Z,14.20
2022-09-16T11:21:38.791Z,11.87
2022-09-16T11:24:19.939Z,10.50
2022-09-16T11:26:56.116Z,13.73
2022-09-16T11:29:47.573Z,12.10
2022-09-16T11:32:23.920Z,9.30
2022-09-16T11:35:09.427Z,10.23
2022-09-16T11:37:44.978Z,7.63
2022-09-16T11:40:23.360Z,9.73
2022-09-16T11:43:00.287Z,8.30
2022-09-16T11:45:44.011Z,9.87
2022-09-16T11:48:33.762Z,6.73
2022-09-16T11:51:10.578Z,11.90
2022-09-16T11:54:04.223Z,6.77
2022-09-16T11:56:38.859Z,6.53
2022-09-16T11:59:16.229Z,8.47
2022-09-16T12:01:46.936Z,6.67
2022-09-16T12:04:21.960Z,9.33
2022-09-16T12:06:57.223Z,9.50
2022-09-16T12:09:32.424Z,8.33
2022-09-16T12:12:12.017Z,11.47
2022-09-16T12:14:43.727Z,7.80
2022-09-16T12:17:17.751Z,8.13
2022-09-16T12:19:52.078Z,9.00
2022-09-16T12:22:23.041Z,8.83
2022-09-16T12:24:58.950Z,7.37
2022-09-16T12:27:36.807Z,10.80
2022-09-16T12:30:07.409Z,8.23
2022-09-16T12:32:44.367Z,7.57
2022-09-16T12:35:15.881Z,8.47
2022-09-16T12:37:49.107Z,7.53
2022-09-16T12:40:24.341Z,8.70
2022-09-16T12:43:23.626Z,8.37
2022-09-16T12:46:17.258Z,8.20
2022-09-16T12:49:15.934Z,6.37
2022-09-16T12:52:09.615Z,7.90
2022-09-16T12:55:10.886Z,6.17
2022-09-16T12:57:53.946Z,9.17
2022-09-16T13:00:23.765Z,5.10
2022-09-16T13:02:54.413Z,6.20
2022-09-16T13:05:29.454Z,6.80
2022-09-16T13:08:04.218Z,4.70
2022-09-16T13:10:54.498Z,5.07
2022-09-16T13:13:32.029Z,5.50
2022-09-16T13:16:02.032Z,5.10
2022-09-16T13:18:43.767Z,4.97
2022-09-16T13:21:23.959Z,3.57
2022-09-16T13:24:01.712Z,4.80
2022-09-16T13:26:40.901Z,4.87
2022-09-16T13:29:41.755Z,5.20
2022-09-16T13:32:28.129Z,5.90
2022-09-16T13:35:04.047Z,5.13
2022-09-16T13:37:31.944Z,6.40
2022-09-16T13:40:17.214Z,4.50
2022-09-16T13:42:45.138Z,4.80
2022-09-16T13:45:35.056Z,4.77
2022-09-16T13:48:10.922Z,4.47
2022-09-16T13:50:42.040Z,5.20
2022-09-16T13:53:11.387Z,3.97
2022-09-16T13:55:42.113Z,4.90
2022-09-16T13:58:19.806Z,4.47
2022-09-16T14:01:01.102Z,6.37
2022-09-16T14:03:48.204Z,3.70
2022-09-16T14:06:42.395Z,4.00
2022-09-16T14:09:25.765Z,6.60
2022-09-16T14:12:03.956Z,5.60
2022-09-16T14:14:49.837Z,3.97
2022-09-16T14:17:23.849Z,4.97
2022-09-16T14:19:56.497Z,4.50
2022-09-16T14:22:26.965Z,3.60
2022-09-16T14:25:06.255Z,5.90
2022-09-16T14:27:39.347Z,4.87
2022-09-16T14:30:14.947Z,4.30
2022-09-16T14:32:45.475Z,6.27
2022-09-16T14:35:19.260Z,6.10
2022-09-16T14:37:52.563Z,8.77
2022-09-16T14:40:23.663Z,6.60
2022-09-16T14:42:55.211Z,5.77
2022-09-16T14:45:23.606Z,6.10
2022-09-16T14:47:55.495Z,5.73
2022-09-16T14:50:26.424Z,5.73
2022-09-16T14:52:56.592Z,6.43
2022-09-16T14:55:26.561Z,6.10
2022-09-16T14:57:54.487Z,5.30
2022-09-16T15:00:23.195Z,4.67
2022-09-16T15:02:57.161Z,4.50
2022-09-16T15:05:30.578Z,6.77
2022-09-16T15:08:14.273Z,5.17
2022-09-16T15:10:53.682Z,8.60
2022-09-16T15:13:23.936Z,6.93
2022-09-16T15:15:55.704Z,6.40
2022-09-16T15:18:29.011Z,5.60
2022-09-16T15:21:07.161Z,5.33
2022-09-16T15:23:37.373Z,4.87
2022-09-16T15:26:16.872Z,4.73
2022-09-16T15:28:58.054Z,9.63
2022-09-16T15:31:34.815Z,5.30
2022-09-16T15:34:20.898Z,4.77
2022-09-16T15:36:50.846Z,5.37
2022-09-16T15:39:25.225Z,5.47
2022-09-16T15:42:12.141Z,5.17
2022-09-16T15:44:47.387Z,4.93
2022-09-16T15:47:25.700Z,5.23
2022-09-16T15:50:00.429Z,5.17
2022-09-16T15:52:29.164Z,6.03
2022-09-16T15:54:59.850Z,5.93
2022-09-16T15:57:31.969Z,9.57
2022-09-16T16:00:10.483Z,5.23
2022-09-16T16:02:43.708Z,5.67
2022-09-16T16:05:16.256Z,8.83
2022-09-16T16:07:46.760Z,12.23
2022-09-16T16:10:18.465Z,5.77
2022-09-16T16:12:47.869Z,4.67
2022-09-16T16:15:17.544Z,5.93
2022-09-16T16:17:46.279Z,4.83
2022-09-16T16:20:17.544Z,5.27
2022-09-16T16:22:46.250Z,4.47
2022-09-16T16:25:15.235Z,4.83
2022-09-16T16:27:43.392Z,5.17
2022-09-16T16:30:12.095Z,5.67
2022-09-16T16:32:40.142Z,5.30
2022-09-16T16:35:08.823Z,5.80
2022-09-16T16:37:46.423Z,4.80
2022-09-16T16:40:15.763Z,9.80
2022-09-16T16:42:44.471Z,7.40
2022-09-16T16:45:13.114Z,6.53
2022-09-16T16:47:41.240Z,4.53
2022-09-16T16:50:09.955Z,6.73
2022-09-16T16:52:39.513Z,5.37
2022-09-16T16:55:08.568Z,4.97
2022-09-16T16:57:36.436Z,5.67
2022-09-16T17:00:05.089Z,5.27
2022-09-16T17:02:33.091Z,5.50
2022-09-16T17:05:01.239Z,8.50
2022-09-16T17:07:29.708Z,6.17
2022-09-16T17:09:58.990Z,7.97
2022-09-16T17:12:27.325Z,5.80
2022-09-16T17:14:55.440Z,6.37
2022-09-16T17:17:26.481Z,8.63
2022-09-16T17:19:58.485Z,7.33
2022-09-16T17:22:26.522Z,8.93
2022-09-16T17:24:54.408Z,5.20
2022-09-16T17:27:26.919Z,7.50
2022-09-16T17:29:54.972Z,6.33
2022-09-16T17:32:22.843Z,8.80
2022-09-16T17:34:50.843Z,5.70
2022-09-16T17:37:19.841Z,6.77
2022-09-16T17:39:49.331Z,6.47
2022-09-16T17:42:17.517Z,5.17
2022-09-16T17:44:46.853Z,5.50
2022-09-16T17:47:15.061Z,7.07
2022-09-16T17:49:42.998Z,8.40
2022-09-16T17:52:10.968Z,6.53
2022-09-16T17:54:38.956Z,6.63
2022-09-16T17:57:06.839Z,4.80
2022-09-16T17:59:35.172Z,7.80
2022-09-16T18:02:04.445Z,5.37
2022-09-16T18:04:32.637Z,4.30
2022-09-16T18:07:00.714Z,6.87
2022-09-16T18:09:28.683Z,8.40
2022-09-16T18:11:58.294Z,4.47
2022-09-16T18:14:26.292Z,5.77
2022-09-16T18:16:54.662Z,8.03
2022-09-16T18:19:24.017Z,12.03
2022-09-16T18:21:52.036Z,6.23
2022-09-16T18:24:20.195Z,7.20
2022-09-16T18:26:49.024Z,5.40
2022-09-16T18:29:16.975Z,7.03
2022-09-16T18:31:47.000Z,6.90
2022-09-16T18:34:15.951Z,6.60
2022-09-16T18:36:45.353Z,7.20
2022-09-16T18:39:15.718Z,10.80
2022-09-16T18:41:45.850Z,9.00
2022-09-16T18:44:15.785Z,5.80
2022-09-16T18:46:44.137Z,9.77
2022-09-16T18:49:13.988Z,7.33
2022-09-16T18:51:50.531Z,6.17
2022-09-16T18:54:25.132Z,6.20
2022-09-16T19:00:35.889Z,6.60
2022-09-16T19:03:03.788Z,5.53
2022-09-16T19:05:31.791Z,4.77
2022-09-16T19:08:01.043Z,8.10
2022-09-16T19:10:29.044Z,7.40
2022-09-16T19:12:57.011Z,5.97
2022-09-16T19:15:24.825Z,8.60
2022-09-16T19:17:53.241Z,7.40
2022-09-16T19:20:21.620Z,9.47
2022-09-16T19:22:49.507Z,7.57
2022-09-16T19:25:19.002Z,7.77
2022-09-16T19:27:47.004Z,15.03
2022-09-16T19:30:15.050Z,6.80
2022-09-16T19:32:43.264Z,5.37
2022-09-16T19:35:11.182Z,10.03
2022-09-16T19:37:39.185Z,5.70
2022-09-16T19:40:07.848Z,5.10
2022-09-16T19:42:37.333Z,6.80
2022-09-16T19:45:05.573Z,5.67
2022-09-16T19:47:33.533Z,5.03
2022-09-16T19:50:02.043Z,8.30
2022-09-16T19:52:29.898Z,6.83
2022-09-16T19:54:57.983Z,15.80
2022-09-16T19:57:26.017Z,6.83
2022-09-16T19:59:55.211Z,11.33
2022-09-16T20:02:23.187Z,6.37
2022-09-16T20:04:51.560Z,7.40
2022-09-16T20:07:20.302Z,7.70
2022-09-16T20:09:48.846Z,12.67
2022-09-16T20:12:16.920Z,8.00
2022-09-16T20:14:44.779Z,8.87
2022-09-16T20:17:14.124Z,9.20
2022-09-16T20:19:42.089Z,5.57
2022-09-16T20:22:09.948Z,9.77
2022-09-16T20:24:37.920Z,7.03
2022-09-16T20:27:06.315Z,7.00
2022-09-16T20:29:34.198Z,6.30
2022-09-16T20:32:02.400Z,9.70
2022-09-16T20:34:31.671Z,6.10
2022-09-16T20:36:59.688Z,6.27
2022-09-16T20:39:28.075Z,7.00
2022-09-16T20:41:56.068Z,6.70
2022-09-16T20:44:23.935Z,6.93
2022-09-16T20:46:51.812Z,5.63
2022-09-16T20:49:23.113Z,5.20
2022-09-16T20:51:52.561Z,7.90
2022-09-16T20:54:20.539Z,5.53
2022-09-16T20:56:49.273Z,5.13
2022-09-16T20:59:20.053Z,5.60
2022-09-16T21:01:49.471Z,5.13
2022-09-16T21:04:19.894Z,6.30
2022-09-16T21:06:48.098Z,5.40
2022-09-16T21:09:18.936Z,6.50
2022-09-16T21:11:47.039Z,6.00
2022-09-16T21:14:16.741Z,4.83
2022-09-16T21:16:46.475Z,5.70
2022-09-16T21:19:15.326Z,6.57
2022-09-16T21:21:46.167Z,5.70
2022-09-16T21:24:14.537Z,5.10
2022-09-16T21:26:44.668Z,5.63
2022-09-16T21:29:16.199Z,5.27
2022-09-16T21:31:44.615Z,6.27
2022-09-16T21:34:14.917Z,7.87
2022-09-16T21:36:44.759Z,4.33
2022-09-16T21:39:14.346Z,5.60
2022-09-16T21:41:43.691Z,5.90
2022-09-16T21:44:12.554Z,7.13
2022-09-16T21:46:44.508Z,6.47
2022-09-16T21:49:22.318Z,7.90
2022-09-16T21:51:51.394Z,4.43
2022-09-16T21:54:20.590Z,5.93
2022-09-16T21:56:50.842Z,6.20
2022-09-16T21:59:20.379Z,7.77
2022-09-16T22:01:49.373Z,7.30
2022-09-16T22:04:19.821Z,6.13
2022-09-16T22:06:48.673Z,7.30
2022-09-16T22:09:16.683Z,8.13
2022-09-16T22:11:44.824Z,8.43
2022-09-16T22:14:14.095Z,6.87
2022-09-16T22:16:42.412Z,7.30
2022-09-16T22:19:12.296Z,7.70
2022-09-16T22:21:42.025Z,7.27
2022-09-16T22:24:10.772Z,6.93
2022-09-16T22:26:39.307Z,5.57
2022-09-16T22:29:09.167Z,6.50
2022-09-16T22:31:41.386Z,6.80
2022-09-16T22:34:09.973Z,6.73
2022-09-16T22:36:39.071Z,4.97
2022-09-16T22:39:09.080Z,6.13
2022-09-16T22:41:36.933Z,6.10
2022-09-16T22:44:05.231Z,4.30
2022-09-16T22:46:35.682Z,7.37
2022-09-16T22:49:05.404Z,5.03
2022-09-16T22:51:33.483Z,4.97
2022-09-16T22:54:01.507Z,4.50
2022-09-16T22:56:32.314Z,5.53
2022-09-16T22:59:01.958Z,3.80
2022-09-16T23:01:32.069Z,4.70
2022-09-16T23:04:02.878Z,5.83
2022-09-16T23:06:34.654Z,3.77
2022-09-16T23:09:03.140Z,5.23
2022-09-16T23:11:33.100Z,5.57
2022-09-16T23:14:01.596Z,6.47
2022-09-16T23:16:31.469Z,5.40
2022-09-16T23:19:00.717Z,6.70
2022-09-16T23:21:28.792Z,10.20
2022-09-16T23:24:01.498Z,8.33
2022-09-16T23:26:31.553Z,6.60
2022-09-16T23:29:01.321Z,7.00
2022-09-16T23:31:31.444Z,6.60
2022-09-16T23:33:59.974Z,5.70
2022-09-16T23:36:28.996Z,5.93
2022-09-16T23:39:00.500Z,5.70
2022-09-16T23:41:28.604Z,8.30
2022-09-16T23:43:57.421Z,7.43
2022-09-16T23:46:31.159Z,8.30
2022-09-16T23:49:00.069Z,7.53
2022-09-16T23:51:29.669Z,7.00
2022-09-16T23:54:00.090Z,5.83
2022-09-16T23:56:28.759Z,6.77
2022-09-16T23:59:00.760Z,6.67
